createdAt,value
2018-07-19T00:01:22.706Z,15.10
2018-07-19T00:03:51.049Z,15.10
2018-07-19T00:06:19.329Z,15.10
2018-07-19T00:08:47.642Z,15.10
2018-07-19T00:11:15.943Z,15.10
2018-07-19T00:13:44.266Z,15.00
2018-07-19T00:16:12.854Z,15.00
2018-07-19T00:18:41.134Z,14.90
2018-07-19T00:21:09.423Z,14.90
2018-07-19T00:23:37.710Z,14.90
2018-07-19T00:26:06.004Z,14.70
2018-07-19T00:28:34.393Z,14.70
2018-07-19T00:31:02.742Z,14.60
2018-07-19T00:33:31.049Z,14.60
2018-07-19T00:35:59.329Z,14.60
2018-07-19T00:38:27.598Z,14.60
2018-07-19T00:40:55.898Z,14.60
2018-07-19T00:43:24.173Z,14.50
2018-07-19T00:45:52.462Z,14.30
2018-07-19T00:48:20.746Z,14.20
2018-07-19T00:50:49.069Z,14.20
2018-07-19T00:53:17.361Z,14.20
2018-07-19T00:55:45.650Z,14.30
2018-07-19T00:58:13.953Z,14.20
2018-07-19T01:00:42.340Z,14.20
2018-07-19T01:03:10.642Z,14.00
2018-07-19T01:05:38.927Z,14.00
2018-07-19T01:08:08.097Z,13.90
2018-07-19T01:10:36.659Z,14.00
2018-07-19T01:13:05.465Z,14.00
2018-07-19T01:15:33.874Z,14.00
2018-07-19T01:18:02.343Z,14.00
2018-07-19T01:20:30.628Z,14.00
2018-07-19T01:22:58.921Z,13.90
2018-07-19T01:25:27.227Z,13.90
2018-07-19T01:27:55.506Z,13.80
2018-07-19T01:30:23.829Z,13.70
2018-07-19T01:32:52.134Z,13.60
2018-07-19T01:35:20.414Z,13.70
2018-07-19T01:37:48.714Z,13.70
2018-07-19T01:42:45.748Z,13.70
2018-07-19T01:45:14.457Z,13.70
2018-07-19T01:47:42.961Z,13.70
2018-07-19T01:50:11.886Z,13.60
2018-07-19T01:52:40.194Z,13.50
2018-07-19T01:55:08.908Z,13.30
2018-07-19T01:57:37.462Z,13.10
2018-07-19T02:00:06.839Z,13.10
2018-07-19T02:02:36.312Z,13.20
2018-07-19T02:05:05.214Z,13.30
2018-07-19T02:07:33.529Z,13.40
2018-07-19T02:10:01.821Z,13.40
2018-07-19T02:12:30.114Z,13.40
2018-07-19T02:14:58.411Z,13.40
2018-07-19T02:17:26.697Z,13.20
2018-07-19T02:19:54.991Z,13.00
2018-07-19T02:22:23.293Z,13.10
2018-07-19T02:24:51.582Z,13.10
2018-07-19T02:27:19.916Z,13.10
2018-07-19T02:29:48.218Z,13.10
2018-07-19T02:32:16.513Z,13.10
2018-07-19T02:34:44.821Z,13.00
2018-07-19T02:37:13.109Z,12.90
2018-07-19T02:39:41.415Z,12.90
2018-07-19T02:42:09.737Z,12.90
2018-07-19T02:44:38.137Z,12.90
2018-07-19T02:47:06.539Z,13.00
2018-07-19T02:49:34.887Z,12.90
2018-07-19T02:52:03.183Z,12.90
2018-07-19T02:54:31.534Z,12.70
2018-07-19T02:56:59.834Z,12.60
2018-07-19T02:59:28.125Z,12.60
2018-07-19T03:01:56.421Z,12.60
2018-07-19T03:04:24.718Z,12.70
2018-07-19T03:06:52.998Z,12.80
2018-07-19T03:09:21.277Z,12.70
2018-07-19T03:11:49.569Z,12.70
2018-07-19T03:14:17.863Z,12.80
2018-07-19T03:16:46.158Z,12.70
2018-07-19T03:19:14.445Z,12.70
2018-07-19T03:21:42.762Z,12.60
2018-07-19T03:24:11.061Z,12.70
2018-07-19T03:26:39.342Z,12.60
2018-07-19T03:29:07.677Z,12.60
2018-07-19T03:31:36.079Z,12.60
2018-07-19T03:34:04.377Z,12.60
2018-07-19T03:36:32.686Z,12.70
2018-07-19T03:39:01.091Z,12.60
2018-07-19T03:41:29.509Z,12.60
2018-07-19T03:43:57.923Z,12.70
2018-07-19T03:46:26.214Z,12.70
2018-07-19T03:48:54.506Z,12.70
2018-07-19T03:51:22.786Z,12.70
2018-07-19T03:53:51.069Z,12.80
2018-07-19T03:56:19.355Z,12.70
2018-07-19T03:58:47.649Z,12.70
2018-07-19T04:01:15.990Z,12.80
2018-07-19T04:03:44.285Z,13.20
2018-07-19T04:08:40.620Z,12.80
2018-07-19T04:11:08.930Z,12.80
2018-07-19T04:13:37.213Z,12.80
2018-07-19T04:16:05.611Z,12.80
2018-07-19T04:18:33.885Z,12.80
2018-07-19T04:21:02.185Z,12.90
2018-07-19T04:25:58.469Z,12.90
2018-07-19T04:28:26.754Z,12.90
2018-07-19T04:30:55.189Z,12.80
2018-07-19T04:33:23.496Z,12.90
2018-07-19T04:35:51.776Z,12.90
2018-07-19T04:38:20.148Z,13.00
2018-07-19T04:40:48.377Z,13.10
2018-07-19T04:43:16.729Z,13.20
2018-07-19T04:45:45.026Z,13.20
2018-07-19T04:48:13.321Z,13.30
2018-07-19T04:50:41.778Z,13.30
2018-07-19T04:53:10.122Z,13.30
2018-07-19T04:55:38.413Z,13.30
2018-07-19T04:58:06.733Z,13.40
2018-07-19T05:00:35.045Z,13.50
2018-07-19T05:03:03.427Z,13.60
2018-07-19T05:05:31.719Z,13.60
2018-07-19T05:08:00.015Z,13.70
2018-07-19T05:10:28.323Z,13.70
2018-07-19T05:12:56.605Z,13.80
2018-07-19T05:15:24.875Z,13.80
2018-07-19T05:17:53.156Z,13.90
2018-07-19T05:20:21.434Z,14.00
2018-07-19T05:22:49.708Z,14.10
2018-07-19T05:25:17.984Z,14.20
2018-07-19T05:27:46.391Z,14.30
2018-07-19T05:30:14.677Z,14.40
2018-07-19T05:35:10.970Z,14.60
2018-07-19T05:37:39.264Z,14.80
2018-07-19T05:40:07.573Z,14.80
2018-07-19T05:45:04.003Z,15.00
2018-07-19T05:47:32.299Z,15.10
2018-07-19T05:50:00.593Z,15.20
2018-07-19T05:52:28.879Z,15.30
2018-07-19T05:57:25.186Z,15.50
2018-07-19T05:59:53.474Z,15.70
2018-07-19T06:02:21.774Z,15.80
2018-07-19T06:04:50.056Z,16.00
2018-07-19T06:07:18.359Z,16.10
2018-07-19T06:09:46.649Z,16.10
2018-07-19T06:12:14.951Z,16.30
2018-07-19T06:14:43.221Z,16.40
2018-07-19T06:17:11.615Z,16.60
2018-07-19T06:19:39.899Z,16.70
2018-07-19T06:22:08.191Z,16.90
2018-07-19T06:24:36.504Z,17.10
2018-07-19T06:27:04.837Z,17.30
2018-07-19T06:29:33.149Z,17.50
2018-07-19T06:32:01.438Z,17.60
2018-07-19T06:34:29.735Z,17.80
2018-07-19T06:36:58.030Z,18.00
2018-07-19T06:39:26.317Z,18.20
2018-07-19T06:41:54.600Z,18.40
2018-07-19T06:44:22.958Z,18.70
2018-07-19T06:46:51.255Z,18.80
2018-07-19T06:49:19.603Z,18.90
2018-07-19T06:51:47.856Z,19.10
2018-07-19T06:54:16.114Z,19.40
2018-07-19T06:56:44.395Z,19.70
2018-07-19T06:59:12.681Z,20.00
2018-07-19T07:01:40.975Z,20.40
2018-07-19T07:04:09.260Z,20.90
2018-07-19T07:06:37.540Z,21.40
2018-07-19T07:09:08.196Z,22.10
2018-07-19T07:11:36.521Z,22.90
2018-07-19T07:14:04.837Z,23.30
2018-07-19T07:16:33.171Z,24.90
2018-07-19T07:19:01.450Z,26.50
2018-07-19T07:21:29.770Z,28.00
2018-07-19T07:23:58.086Z,29.50
2018-07-19T07:26:26.402Z,30.90
2018-07-19T07:28:54.682Z,31.50
2018-07-19T07:31:23.003Z,32.50
2018-07-19T07:33:51.298Z,32.10
2018-07-19T07:36:19.591Z,32.50
2018-07-19T07:38:47.930Z,33.60
2018-07-19T07:41:16.223Z,34.50
2018-07-19T07:43:44.524Z,34.10
2018-07-19T07:48:40.809Z,33.60
2018-07-19T07:51:09.542Z,33.40
2018-07-19T07:53:37.861Z,33.10
2018-07-19T07:56:06.157Z,34.40
2018-07-19T07:58:34.444Z,36.30
2018-07-19T08:01:02.717Z,37.60
2018-07-19T08:03:30.998Z,38.20
2018-07-19T08:05:59.277Z,37.90
2018-07-19T08:08:27.650Z,38.20
2018-07-19T08:10:55.934Z,37.10
2018-07-19T08:13:24.229Z,37.10
2018-07-19T08:15:52.535Z,36.40
2018-07-19T08:18:20.804Z,35.80
2018-07-19T08:20:49.081Z,36.40
2018-07-19T08:23:17.380Z,35.80
2018-07-19T08:25:45.654Z,34.60
2018-07-19T08:28:14.072Z,33.70
2018-07-19T08:30:42.340Z,34.60
2018-07-19T08:33:10.631Z,34.70
2018-07-19T08:35:38.922Z,34.30
2018-07-19T08:38:07.204Z,36.50
2018-07-19T08:40:35.487Z,37.10
2018-07-19T08:43:03.795Z,37.10
2018-07-19T08:45:32.108Z,38.30
2018-07-19T08:48:00.416Z,38.60
2018-07-19T08:50:28.712Z,37.20
2018-07-19T08:52:57.034Z,37.90
2018-07-19T08:55:25.739Z,38.40
2018-07-19T08:57:54.062Z,38.70
2018-07-19T09:00:22.354Z,38.80
2018-07-19T09:02:50.665Z,38.80
2018-07-19T09:05:18.958Z,38.80
2018-07-19T09:07:47.235Z,38.70
2018-07-19T09:10:15.726Z,38.80
2018-07-19T09:12:44.068Z,39.20
2018-07-19T09:15:12.355Z,39.30
2018-07-19T09:17:40.635Z,39.30
2018-07-19T09:20:08.951Z,40.40
2018-07-19T09:22:37.262Z,40.00
2018-07-19T09:25:05.583Z,39.90
2018-07-19T09:27:33.870Z,37.70
2018-07-19T09:30:02.162Z,39.30
2018-07-19T09:32:30.449Z,39.00
2018-07-19T09:34:58.728Z,39.30
2018-07-19T09:37:27.016Z,40.30
2018-07-19T09:39:55.314Z,40.40
2018-07-19T09:42:23.639Z,39.40
2018-07-19T09:44:51.916Z,40.20
2018-07-19T09:47:20.202Z,40.40
2018-07-19T09:49:48.527Z,40.80
2018-07-19T09:52:16.858Z,40.90
2018-07-19T09:54:55.172Z,40.50
2018-07-19T09:57:23.527Z,40.60
2018-07-19T09:59:51.803Z,41.00
2018-07-19T10:02:20.086Z,39.50
2018-07-19T10:04:48.378Z,39.90
2018-07-19T10:07:16.687Z,39.50
2018-07-19T10:09:45.267Z,40.30
2018-07-19T10:12:13.553Z,38.20
2018-07-19T10:14:41.828Z,37.70
2018-07-19T10:17:10.322Z,37.90
2018-07-19T10:19:38.623Z,37.80
2018-07-19T10:22:07.030Z,38.10
2018-07-19T10:24:35.444Z,36.90
2018-07-19T10:27:03.746Z,36.50
2018-07-19T10:29:32.054Z,37.50
2018-07-19T10:32:00.407Z,38.80
2018-07-19T10:34:28.709Z,39.70
2018-07-19T10:36:56.946Z,40.40
2018-07-19T10:39:25.232Z,39.00
2018-07-19T10:41:53.530Z,39.80
2018-07-19T10:44:21.865Z,38.70
2018-07-19T10:46:50.190Z,38.80
2018-07-19T10:49:18.503Z,38.90
2018-07-19T10:51:46.809Z,38.50
2018-07-19T10:54:15.054Z,38.50
2018-07-19T10:56:43.323Z,39.90
2018-07-19T10:59:11.619Z,39.20
2018-07-19T11:01:39.879Z,39.00
2018-07-19T11:04:08.209Z,38.70
2018-07-19T11:06:36.486Z,39.50
2018-07-19T11:09:07.475Z,39.90
2018-07-19T11:11:35.750Z,39.70
2018-07-19T11:14:04.063Z,39.20
2018-07-19T11:16:32.362Z,37.90
2018-07-19T11:19:00.662Z,38.10
2018-07-19T11:21:28.949Z,37.40
2018-07-19T11:23:57.231Z,38.00
2018-07-19T11:26:25.502Z,37.80
2018-07-19T11:28:53.759Z,38.20
2018-07-19T11:31:22.028Z,38.80
2018-07-19T11:33:50.294Z,38.40
2018-07-19T11:36:18.561Z,38.20
2018-07-19T11:38:46.831Z,37.40
2018-07-19T11:41:15.115Z,36.10
2018-07-19T11:43:43.383Z,36.20
2018-07-19T11:46:11.694Z,36.70
2018-07-19T11:51:07.994Z,37.20
2018-07-19T11:53:36.270Z,36.70
2018-07-19T11:56:04.695Z,36.80
2018-07-19T11:58:32.967Z,36.60
2018-07-19T12:01:01.235Z,36.50
2018-07-19T12:03:29.501Z,36.60
2018-07-19T12:05:57.799Z,36.60
2018-07-19T12:08:26.067Z,36.60
2018-07-19T12:10:54.339Z,35.40
2018-07-19T12:13:22.615Z,34.10
2018-07-19T12:15:50.897Z,33.50
2018-07-19T12:18:19.167Z,33.10
2018-07-19T12:20:47.430Z,33.20
2018-07-19T12:23:15.710Z,33.40
2018-07-19T12:25:44.078Z,33.40
2018-07-19T12:28:12.361Z,33.80
2018-07-19T12:30:40.630Z,34.70
2018-07-19T12:33:08.910Z,35.00
2018-07-19T12:35:37.841Z,35.20
2018-07-19T12:38:06.122Z,34.70
2018-07-19T12:40:34.386Z,34.30
2018-07-19T12:43:02.807Z,34.50
2018-07-19T12:45:31.090Z,34.00
2018-07-19T12:47:59.360Z,33.90
2018-07-19T12:50:27.639Z,33.20
2018-07-19T12:52:55.895Z,34.30
2018-07-19T12:55:24.181Z,34.80
2018-07-19T12:57:52.452Z,34.40
2018-07-19T13:00:20.755Z,34.00
2018-07-19T13:02:49.010Z,34.20
2018-07-19T13:05:17.321Z,34.40
2018-07-19T13:07:45.606Z,34.60
2018-07-19T13:10:13.919Z,33.10
2018-07-19T13:15:10.316Z,32.40
2018-07-19T13:17:38.595Z,32.60
2018-07-19T13:20:06.898Z,32.30
2018-07-19T13:22:35.198Z,32.90
2018-07-19T13:25:03.550Z,32.10
2018-07-19T13:27:32.136Z,32.10
2018-07-19T13:30:00.421Z,32.60
2018-07-19T13:32:28.720Z,33.30
2018-07-19T13:34:57.081Z,32.70
2018-07-19T13:37:25.588Z,32.90
2018-07-19T13:42:21.878Z,32.60
2018-07-19T13:44:50.510Z,33.00
2018-07-19T13:49:46.891Z,32.70
2018-07-19T13:52:15.537Z,32.40
2018-07-19T13:54:45.862Z,32.70
2018-07-19T13:57:14.179Z,32.80
2018-07-19T13:59:42.473Z,32.40
2018-07-19T14:02:10.807Z,31.60
2018-07-19T14:04:39.092Z,31.80
2018-07-19T14:07:07.391Z,32.10
2018-07-19T14:09:36.510Z,32.00
2018-07-19T14:12:04.790Z,32.50
2018-07-19T14:14:33.078Z,32.70
2018-07-19T14:17:01.386Z,32.40
2018-07-19T14:19:29.766Z,32.80
2018-07-19T14:21:58.068Z,33.20
2018-07-19T14:24:26.394Z,33.30
2018-07-19T14:26:54.706Z,33.00
2018-07-19T14:29:22.981Z,33.20
2018-07-19T14:31:51.283Z,33.40
2018-07-19T14:34:19.565Z,32.70
2018-07-19T14:36:47.934Z,33.00
2018-07-19T14:39:16.242Z,32.70
2018-07-19T14:41:44.520Z,32.60
2018-07-19T14:44:12.798Z,32.40
2018-07-19T14:46:41.075Z,32.30
2018-07-19T14:49:09.350Z,32.30
2018-07-19T14:51:37.633Z,32.30
2018-07-19T14:56:34.015Z,31.30
2018-07-19T14:59:02.911Z,30.60
2018-07-19T15:01:31.187Z,30.50
2018-07-19T15:04:00.146Z,30.20
2018-07-19T15:06:28.982Z,29.90
2018-07-19T15:08:57.610Z,30.10
2018-07-19T15:11:25.947Z,30.20
2018-07-19T15:13:54.358Z,30.30
2018-07-19T15:16:22.714Z,30.10
2018-07-19T15:18:51.158Z,30.00
2018-07-19T15:21:19.591Z,30.10
2018-07-19T15:23:47.841Z,30.30
2018-07-19T15:26:16.114Z,30.30
2018-07-19T15:28:44.489Z,30.10
2018-07-19T15:31:15.428Z,30.00
2018-07-19T15:33:43.944Z,29.80
2018-07-19T15:36:12.213Z,29.90
2018-07-19T15:38:40.469Z,29.60
2018-07-19T15:41:08.766Z,29.50
2018-07-19T15:43:37.714Z,29.40
2018-07-19T15:46:06.238Z,29.20
2018-07-19T15:48:34.517Z,29.00
2018-07-19T15:51:02.890Z,28.90
2018-07-19T15:53:31.235Z,28.60
2018-07-19T15:55:59.520Z,28.70
2018-07-19T15:58:27.808Z,28.80
2018-07-19T16:00:56.068Z,28.90
2018-07-19T16:03:24.427Z,28.80
2018-07-19T16:05:52.694Z,28.80
2018-07-19T16:08:20.984Z,28.90
2018-07-19T16:10:49.263Z,28.80
2018-07-19T16:13:17.525Z,28.80
2018-07-19T16:15:45.805Z,28.60
2018-07-19T16:18:14.075Z,28.60
2018-07-19T16:20:42.365Z,28.70
2018-07-19T16:23:10.641Z,28.60
2018-07-19T16:30:35.657Z,28.40
2018-07-19T16:33:03.934Z,28.30
2018-07-19T16:35:32.492Z,28.20
2018-07-19T16:38:00.775Z,28.10
2018-07-19T16:40:29.053Z,28.00
2018-07-19T16:45:17.586Z,28.00
2018-07-19T16:47:46.160Z,27.90
2018-07-19T16:50:14.558Z,28.00
2018-07-19T16:52:42.847Z,27.90
2018-07-19T16:55:11.184Z,27.80
2018-07-19T16:57:39.554Z,27.60
2018-07-19T17:00:08.976Z,27.60
2018-07-19T17:02:38.210Z,27.50
2018-07-19T17:05:07.171Z,27.30
2018-07-19T17:07:36.449Z,27.30
2018-07-19T17:12:33.243Z,27.20
2018-07-19T17:15:01.547Z,27.10
2018-07-19T17:17:29.885Z,27.00
2018-07-19T17:19:58.142Z,26.80
2018-07-19T17:22:26.875Z,26.70
2018-07-19T17:24:56.024Z,26.70
2018-07-19T17:27:24.623Z,26.60
2018-07-19T17:29:53.325Z,26.50
2018-07-19T17:32:22.257Z,26.50
2018-07-19T17:34:50.873Z,26.40
2018-07-19T17:37:19.810Z,26.30
2018-07-19T17:39:48.115Z,26.30
2018-07-19T17:42:16.877Z,26.30
2018-07-19T17:44:45.129Z,26.20
2018-07-19T17:47:13.410Z,26.20
2018-07-19T17:49:41.771Z,26.00
2018-07-19T17:52:10.446Z,26.00
2018-07-19T17:54:39.252Z,25.90
2018-07-19T17:57:09.353Z,25.90
2018-07-19T17:59:38.188Z,25.80
2018-07-19T18:02:07.500Z,25.70
2018-07-19T18:04:36.814Z,25.70
2018-07-19T18:07:06.183Z,25.70
2018-07-19T18:09:36.315Z,25.60
2018-07-19T18:12:05.321Z,25.50
2018-07-19T18:14:36.975Z,25.40
2018-07-19T18:17:06.943Z,25.30
2018-07-19T18:19:35.385Z,25.20
2018-07-19T18:22:03.752Z,25.00
2018-07-19T18:24:32.195Z,24.80
2018-07-19T18:27:00.691Z,24.70
2018-07-19T18:29:29.410Z,24.50
2018-07-19T18:31:57.725Z,24.40
2018-07-19T18:34:25.987Z,24.20
2018-07-19T18:39:22.476Z,23.90
2018-07-19T18:41:50.896Z,23.70
2018-07-19T18:44:19.354Z,23.50
2018-07-19T18:46:47.631Z,23.20
2018-07-19T18:49:15.894Z,23.00
2018-07-19T18:51:44.210Z,22.70
2018-07-19T18:54:12.466Z,22.50
2018-07-19T18:56:40.740Z,22.20
2018-07-19T18:59:09.166Z,22.00
2018-07-19T19:01:37.466Z,21.80
2018-07-19T19:04:05.799Z,21.60
2018-07-19T19:06:34.146Z,21.50
2018-07-19T19:09:02.452Z,21.30
2018-07-19T19:11:30.754Z,21.20
2018-07-19T19:13:59.046Z,21.00
2018-07-19T19:16:27.397Z,20.90
2018-07-19T19:18:55.675Z,20.70
2018-07-19T19:21:23.937Z,20.60
2018-07-19T19:23:52.277Z,20.80
2018-07-19T19:26:20.814Z,20.80
2018-07-19T19:28:49.151Z,20.60
2018-07-19T19:31:17.714Z,20.40
2018-07-19T19:33:46.030Z,20.50
2018-07-19T19:36:14.310Z,20.60
2018-07-19T19:38:43.030Z,20.60
2018-07-19T19:41:11.366Z,20.50
2018-07-19T19:43:39.642Z,20.50
2018-07-19T19:46:07.942Z,20.50
2018-07-19T19:48:36.856Z,20.50
2018-07-19T19:51:06.759Z,20.50
2018-07-19T19:53:35.270Z,20.60
2018-07-19T19:56:03.981Z,20.50
2018-07-19T19:58:32.476Z,20.40
2018-07-19T20:01:01.091Z,20.40
2018-07-19T20:03:29.483Z,20.50
2018-07-19T20:05:57.765Z,20.40
2018-07-19T20:08:26.305Z,20.30
2018-07-19T20:10:54.605Z,20.30
2018-07-19T20:13:22.874Z,20.20
2018-07-19T20:15:51.257Z,20.20
2018-07-19T20:18:19.636Z,20.20
2018-07-19T20:20:48.044Z,20.10
2018-07-19T20:23:16.413Z,20.00
2018-07-19T20:25:44.726Z,19.90
2018-07-19T20:28:13.037Z,19.80
2018-07-19T20:30:41.472Z,19.70
2018-07-19T20:33:09.886Z,19.70
2018-07-19T20:35:38.157Z,19.60
2018-07-19T20:38:06.429Z,19.50
2018-07-19T20:40:34.706Z,19.40
2018-07-19T20:43:02.996Z,19.30
2018-07-19T20:45:31.278Z,19.30
2018-07-19T20:47:59.543Z,19.10
2018-07-19T20:50:27.883Z,19.10
2018-07-19T20:55:24.350Z,19.00
2018-07-19T20:57:52.633Z,19.00
2018-07-19T21:00:20.907Z,18.90
2018-07-19T21:02:49.179Z,18.80
2018-07-19T21:05:17.459Z,18.60
2018-07-19T21:07:45.754Z,18.50
2018-07-19T21:10:14.204Z,18.50
2018-07-19T21:12:42.493Z,18.30
2018-07-19T21:15:10.763Z,18.30
2018-07-19T21:17:39.054Z,18.30
2018-07-19T21:20:07.354Z,18.10
2018-07-19T21:22:35.645Z,18.00
2018-07-19T21:25:04.103Z,18.00
2018-07-19T21:27:32.422Z,18.00
2018-07-19T21:30:00.693Z,18.00
2018-07-19T21:32:28.967Z,17.90
2018-07-19T21:34:57.257Z,17.80
2018-07-19T21:37:25.537Z,17.80
2018-07-19T21:39:53.813Z,17.70
2018-07-19T21:42:22.098Z,17.60
2018-07-19T21:44:50.369Z,17.50
2018-07-19T21:47:18.646Z,17.40
2018-07-19T21:49:46.941Z,17.40
2018-07-19T21:52:15.210Z,17.40
2018-07-19T21:54:43.492Z,17.30
2018-07-19T21:57:11.762Z,17.20
2018-07-19T21:59:40.040Z,17.20
2018-07-19T22:02:08.349Z,17.10
2018-07-19T22:04:36.622Z,17.00
2018-07-19T22:07:05.383Z,17.00
2018-07-19T22:09:33.684Z,16.80
2018-07-19T22:12:01.974Z,16.70
2018-07-19T22:14:30.275Z,16.60
2018-07-19T22:16:58.601Z,16.50
2018-07-19T22:19:26.838Z,16.50
2018-07-19T22:21:55.121Z,16.40
2018-07-19T22:24:23.390Z,16.40
2018-07-19T22:26:51.667Z,16.20
2018-07-19T22:29:20.027Z,16.10
2018-07-19T22:31:48.314Z,16.10
2018-07-19T22:34:16.650Z,16.20
2018-07-19T22:36:44.923Z,16.20
2018-07-19T22:39:13.193Z,16.00
2018-07-19T22:41:41.494Z,15.90
2018-07-19T22:44:09.869Z,15.80
2018-07-19T22:46:38.171Z,15.60
2018-07-19T22:49:07.141Z,15.50
2018-07-19T22:51:35.438Z,15.30
2018-07-19T22:54:03.719Z,15.20
2018-07-19T22:56:32.006Z,15.10
2018-07-19T22:59:00.281Z,15.00
2018-07-19T23:01:28.575Z,14.90
2018-07-19T23:03:56.889Z,14.90
2018-07-19T23:08:53.261Z,15.00
2018-07-19T23:11:21.554Z,14.90
2018-07-19T23:13:49.829Z,15.00
2018-07-19T23:16:18.109Z,14.90
2018-07-19T23:18:46.454Z,15.00
2018-07-19T23:21:14.782Z,15.00
2018-07-19T23:23:43.050Z,15.00
2018-07-19T23:26:11.346Z,14.80
2018-07-19T23:28:39.630Z,14.60
2018-07-19T23:31:07.925Z,14.60
2018-07-19T23:33:36.257Z,14.50
2018-07-19T23:36:10.078Z,14.40
2018-07-19T23:38:43.190Z,14.40
2018-07-19T23:41:15.575Z,14.30
2018-07-19T23:43:46.574Z,14.20
2018-07-19T23:46:20.672Z,14.10
2018-07-19T23:48:49.165Z,14.20
2018-07-19T23:51:17.423Z,14.30
2018-07-19T23:53:45.857Z,14.30
2018-07-19T23:56:14.175Z,14.30
2018-07-19T23:58:42.447Z,14.30
